createdAt,value
2023-05-15T00:00:10.912Z,3.58
2023-05-15T00:02:38.956Z,4.85
2023-05-15T00:05:08.050Z,5.28
2023-05-15T00:07:36.247Z,5.20
2023-05-15T00:10:03.476Z,5.35
2023-05-15T00:12:30.515Z,4.70
2023-05-15T00:14:57.199Z,6.95
2023-05-15T00:17:23.796Z,4.55
2023-05-15T00:19:50.456Z,6.05
2023-05-15T00:22:17.050Z,3.40
2023-05-15T00:24:43.890Z,5.15
2023-05-15T00:27:10.570Z,7.30
2023-05-15T00:29:37.178Z,4.88
2023-05-15T00:32:04.054Z,5.15
2023-05-15T00:34:30.786Z,7.07
2023-05-15T00:36:57.438Z,5.93
2023-05-15T00:39:24.208Z,6.97
2023-05-15T00:41:54.341Z,6.05
2023-05-15T00:44:21.958Z,6.88
2023-05-15T00:46:50.197Z,6.60
2023-05-15T00:49:19.611Z,6.13
2023-05-15T00:51:46.382Z,5.88
2023-05-15T00:54:12.997Z,5.93
2023-05-15T00:56:41.773Z,6.45
2023-05-15T00:59:08.720Z,4.88
2023-05-15T01:01:35.697Z,9.70
2023-05-15T01:04:02.912Z,6.28
2023-05-15T01:06:32.805Z,6.93
2023-05-15T01:09:04.656Z,6.35
2023-05-15T01:11:36.455Z,6.65
2023-05-15T01:14:07.848Z,9.07
2023-05-15T01:16:36.183Z,6.27
2023-05-15T01:19:04.777Z,4.38
2023-05-15T01:21:40.904Z,4.47
2023-05-15T01:24:41.733Z,5.78
2023-05-15T01:27:19.312Z,4.88
2023-05-15T01:29:56.102Z,4.35
2023-05-15T01:32:43.196Z,5.47
2023-05-15T01:35:27.520Z,8.25
2023-05-15T01:38:03.914Z,4.20
2023-05-15T01:40:30.585Z,7.32
2023-05-15T01:43:05.370Z,6.85
2023-05-15T01:45:33.661Z,5.90
2023-05-15T01:48:02.227Z,8.20
2023-05-15T01:50:32.798Z,5.07
2023-05-15T01:53:02.740Z,7.03
2023-05-15T01:55:30.856Z,7.38
2023-05-15T01:58:01.508Z,6.03
2023-05-15T02:00:29.760Z,7.90
2023-05-15T02:02:57.869Z,4.97
2023-05-15T02:05:25.993Z,7.80
2023-05-15T02:07:53.707Z,6.63
2023-05-15T02:10:21.411Z,7.95
2023-05-15T02:12:50.246Z,7.90
2023-05-15T02:15:17.475Z,10.43
2023-05-15T02:17:44.190Z,5.88
2023-05-15T02:20:11.718Z,6.38
2023-05-15T02:22:38.521Z,7.97
2023-05-15T02:25:06.159Z,9.00
2023-05-15T02:27:45.691Z,7.95
2023-05-15T02:30:29.717Z,8.40
2023-05-15T02:33:21.556Z,8.68
2023-05-15T02:35:58.936Z,6.68
2023-05-15T02:38:33.323Z,7.32
2023-05-15T02:41:01.109Z,8.63
2023-05-15T02:43:29.312Z,10.52
2023-05-15T02:45:57.238Z,9.40
2023-05-15T02:48:25.338Z,8.63
2023-05-15T02:50:53.344Z,8.85
2023-05-15T02:53:19.888Z,9.35
2023-05-15T02:55:46.511Z,8.82
2023-05-15T02:58:13.474Z,7.85
2023-05-15T03:00:40.288Z,9.40
2023-05-15T03:03:06.991Z,8.57
2023-05-15T03:05:33.678Z,8.02
2023-05-15T03:08:01.196Z,8.23
2023-05-15T03:10:29.009Z,8.57
2023-05-15T03:12:59.388Z,8.02
2023-05-15T03:15:26.401Z,8.27
2023-05-15T03:17:53.251Z,7.40
2023-05-15T03:20:20.060Z,8.38
2023-05-15T03:22:46.769Z,9.55
2023-05-15T03:25:13.390Z,9.40
2023-05-15T03:27:40.027Z,8.52
2023-05-15T03:30:07.351Z,7.93
2023-05-15T03:32:34.006Z,10.98
2023-05-15T03:35:01.118Z,10.95
2023-05-15T03:37:27.884Z,7.65
2023-05-15T03:39:56.228Z,9.43
2023-05-15T03:42:25.250Z,9.80
2023-05-15T03:44:52.413Z,12.95
2023-05-15T03:47:19.414Z,8.32
2023-05-15T03:49:46.980Z,10.63
2023-05-15T03:52:13.971Z,10.13
2023-05-15T03:54:42.214Z,11.15
2023-05-15T03:57:09.086Z,7.70
2023-05-15T03:59:35.751Z,8.57
2023-05-15T04:02:05.481Z,10.13
2023-05-15T04:04:33.050Z,10.45
2023-05-15T04:07:00.315Z,9.13
2023-05-15T04:09:27.027Z,6.15
2023-05-15T04:11:53.800Z,9.20
2023-05-15T04:14:21.007Z,10.45
2023-05-15T04:16:47.820Z,7.82
2023-05-15T04:19:15.081Z,8.15
2023-05-15T04:21:41.809Z,7.65
2023-05-15T04:24:08.905Z,8.95
2023-05-15T04:26:36.607Z,9.63
2023-05-15T04:29:04.773Z,9.30
2023-05-15T04:31:32.203Z,9.57
2023-05-15T04:33:58.846Z,16.15
2023-05-15T04:36:25.705Z,10.65
2023-05-15T04:38:52.348Z,11.05
2023-05-15T04:41:18.988Z,12.63
2023-05-15T04:43:46.006Z,12.00
2023-05-15T04:46:12.994Z,13.25
2023-05-15T04:48:39.830Z,10.15
2023-05-15T04:51:07.571Z,13.38
2023-05-15T04:53:35.228Z,11.27
2023-05-15T04:56:01.853Z,11.20
2023-05-15T04:58:28.631Z,14.45
2023-05-15T05:00:55.704Z,11.55
2023-05-15T05:03:22.796Z,12.77
2023-05-15T05:05:49.849Z,12.98
2023-05-15T05:08:17.133Z,13.93
2023-05-15T05:10:43.841Z,11.38
2023-05-15T05:13:10.813Z,14.95
2023-05-15T05:15:37.785Z,14.75
2023-05-15T05:18:04.858Z,14.25
2023-05-15T05:20:31.707Z,15.85
2023-05-15T05:22:58.328Z,13.23
2023-05-15T05:25:25.531Z,14.20
2023-05-15T05:27:52.475Z,13.48
2023-05-15T05:30:19.819Z,11.88
2023-05-15T05:32:46.900Z,14.75
2023-05-15T05:35:14.185Z,13.25
2023-05-15T05:37:41.647Z,12.95
2023-05-15T05:40:09.082Z,16.02
2023-05-15T05:42:35.860Z,11.60
2023-05-15T05:45:02.735Z,13.35
2023-05-15T05:47:29.724Z,14.95
2023-05-15T05:49:56.908Z,11.75
2023-05-15T05:52:23.783Z,14.32
2023-05-15T05:54:50.720Z,18.38
2023-05-15T05:57:17.571Z,18.25
2023-05-15T05:59:45.902Z,12.55
2023-05-15T06:02:13.690Z,13.45
2023-05-15T06:04:40.528Z,13.02
2023-05-15T06:07:07.557Z,11.32
2023-05-15T06:09:34.533Z,10.80
2023-05-15T06:12:04.643Z,9.32
2023-05-15T06:14:31.496Z,14.07
2023-05-15T06:16:58.702Z,9.65
2023-05-15T06:19:25.910Z,9.27
2023-05-15T06:21:53.422Z,10.50
2023-05-15T06:24:20.190Z,10.50
2023-05-15T06:26:46.931Z,8.38
2023-05-15T06:29:13.572Z,9.52
2023-05-15T06:31:40.220Z,10.18
2023-05-15T06:34:07.215Z,9.10
2023-05-15T06:36:43.510Z,10.98
2023-05-15T06:39:13.041Z,9.73
2023-05-15T06:41:40.350Z,13.13
2023-05-15T06:44:07.133Z,9.85
2023-05-15T06:46:33.979Z,7.38
2023-05-15T06:49:00.927Z,8.10
2023-05-15T06:51:27.939Z,9.57
2023-05-15T06:53:55.047Z,14.93
2023-05-15T06:56:22.135Z,9.23
2023-05-15T06:58:48.940Z,9.18
2023-05-15T07:01:15.799Z,9.60
2023-05-15T07:03:43.172Z,10.40
2023-05-15T07:06:09.897Z,9.73
2023-05-15T07:08:36.769Z,11.85
2023-05-15T07:11:03.963Z,12.63
2023-05-15T07:13:30.815Z,12.73
2023-05-15T07:16:00.142Z,13.43
2023-05-15T07:18:27.033Z,8.07
2023-05-15T07:20:54.205Z,6.40
2023-05-15T07:23:21.043Z,8.55
2023-05-15T07:25:48.474Z,6.50
2023-05-15T07:28:15.354Z,10.77
2023-05-15T07:30:42.634Z,7.32
2023-05-15T07:33:09.807Z,13.30
2023-05-15T07:35:36.764Z,9.30
2023-05-15T07:38:03.680Z,9.52
2023-05-15T07:40:31.011Z,6.88
2023-05-15T07:42:58.648Z,8.88
2023-05-15T07:45:25.785Z,8.80
2023-05-15T07:47:52.868Z,6.55
2023-05-15T07:50:19.671Z,6.25
2023-05-15T07:52:46.753Z,9.73
2023-05-15T07:55:13.748Z,7.60
2023-05-15T07:57:45.793Z,7.05
2023-05-15T08:00:13.177Z,8.93
2023-05-15T08:02:40.802Z,5.50
2023-05-15T08:05:08.070Z,11.07
2023-05-15T08:07:35.141Z,9.23
2023-05-15T08:10:02.141Z,7.97
2023-05-15T08:12:29.153Z,10.68
2023-05-15T08:14:56.543Z,6.88
2023-05-15T08:17:24.881Z,9.90
2023-05-15T08:19:52.382Z,11.68
2023-05-15T08:22:19.434Z,8.38
2023-05-15T08:24:46.340Z,12.23
2023-05-15T08:27:13.370Z,12.82
2023-05-15T08:29:40.382Z,9.02
2023-05-15T08:32:08.819Z,10.73
2023-05-15T08:34:35.829Z,11.80
2023-05-15T08:37:02.629Z,11.40
2023-05-15T08:39:29.307Z,11.75
2023-05-15T08:42:08.701Z,10.73
2023-05-15T08:44:36.323Z,14.05
2023-05-15T08:47:04.081Z,8.68
2023-05-15T08:49:46.411Z,10.70
2023-05-15T08:54:41.119Z,12.20
2023-05-15T08:57:09.488Z,8.35
2023-05-15T08:59:37.704Z,11.57
2023-05-15T09:02:04.938Z,8.52
2023-05-15T09:04:32.176Z,9.55
2023-05-15T09:07:03.823Z,11.30
2023-05-15T09:09:33.144Z,8.85
2023-05-15T09:12:02.457Z,10.55
2023-05-15T09:14:30.442Z,8.63
2023-05-15T09:16:57.387Z,11.73
2023-05-15T09:19:24.384Z,8.63
2023-05-15T09:21:51.130Z,9.50
2023-05-15T09:24:23.785Z,9.88
2023-05-15T09:27:09.443Z,6.25
2023-05-15T09:29:38.160Z,8.38
2023-05-15T09:32:08.031Z,6.25
2023-05-15T09:34:38.053Z,10.32
2023-05-15T09:37:07.656Z,9.90
2023-05-15T09:39:41.925Z,8.60
2023-05-15T09:42:10.589Z,7.93
2023-05-15T09:44:42.512Z,7.15
2023-05-15T09:47:13.904Z,8.40
2023-05-15T09:49:44.280Z,5.93
2023-05-15T09:52:11.146Z,10.93
2023-05-15T09:54:38.410Z,9.48
2023-05-15T09:57:09.931Z,10.65
2023-05-15T09:59:42.998Z,9.23
2023-05-15T10:02:13.327Z,9.55
2023-05-15T10:04:40.626Z,8.27
2023-05-15T10:07:09.684Z,9.85
2023-05-15T10:09:36.709Z,8.80
2023-05-15T10:12:05.550Z,7.30
2023-05-15T10:14:32.617Z,7.97
2023-05-15T10:17:00.491Z,7.38
2023-05-15T10:19:29.694Z,8.25
2023-05-15T10:21:59.683Z,9.65
2023-05-15T10:24:30.139Z,5.88
2023-05-15T10:26:57.620Z,8.13
2023-05-15T10:29:27.171Z,6.68
2023-05-15T10:31:55.013Z,13.65
2023-05-15T10:34:22.375Z,6.45
2023-05-15T10:36:50.124Z,6.95
2023-05-15T10:39:17.844Z,8.05
2023-05-15T10:41:46.030Z,10.27
2023-05-15T10:44:14.874Z,14.50
2023-05-15T10:46:41.787Z,7.68
2023-05-15T10:49:08.701Z,8.07
2023-05-15T10:51:39.687Z,6.75
2023-05-15T10:54:06.706Z,8.02
2023-05-15T10:56:34.867Z,7.15
2023-05-15T10:59:10.634Z,8.32
2023-05-15T11:01:39.590Z,8.80
2023-05-15T11:04:17.692Z,8.43
2023-05-15T11:06:49.495Z,6.68
2023-05-15T11:09:22.744Z,11.38
2023-05-15T11:11:52.706Z,8.10
2023-05-15T11:14:20.191Z,8.55
2023-05-15T11:16:55.931Z,7.18
2023-05-15T11:19:22.668Z,6.82
2023-05-15T11:22:16.866Z,11.45
2023-05-15T11:24:59.171Z,11.50
2023-05-15T11:30:11.033Z,11.02
2023-05-15T11:32:59.080Z,9.18
2023-05-15T11:35:30.255Z,12.65
2023-05-15T11:37:58.613Z,8.95
2023-05-15T11:40:32.949Z,9.93
2023-05-15T11:43:20.681Z,8.02
2023-05-15T11:45:56.278Z,10.32
2023-05-15T11:48:25.452Z,8.68
2023-05-15T11:50:55.473Z,8.85
2023-05-15T11:53:24.177Z,7.38
2023-05-15T11:55:53.066Z,8.57
2023-05-15T11:58:21.576Z,7.50
2023-05-15T12:00:50.349Z,8.65
2023-05-15T12:03:32.296Z,5.55
2023-05-15T12:06:01.221Z,8.70
2023-05-15T12:08:36.194Z,6.57
2023-05-15T12:11:06.000Z,8.00
2023-05-15T12:13:33.969Z,9.38
2023-05-15T12:16:04.692Z,10.07
2023-05-15T12:18:32.839Z,9.45
2023-05-15T12:21:02.161Z,18.55
2023-05-15T12:23:29.116Z,8.55
2023-05-15T12:26:01.357Z,7.40
2023-05-15T12:28:29.665Z,10.65
2023-05-15T12:30:57.093Z,8.27
2023-05-15T12:33:25.164Z,6.40
2023-05-15T12:35:58.270Z,7.35
2023-05-15T12:38:27.343Z,9.90
2023-05-15T12:40:54.489Z,11.05
2023-05-15T12:43:25.226Z,8.32
2023-05-15T12:45:55.329Z,8.88
2023-05-15T12:48:34.234Z,10.55
2023-05-15T12:51:08.329Z,8.40
2023-05-15T12:53:36.368Z,7.82
2023-05-15T12:56:04.954Z,10.82
2023-05-15T12:58:32.490Z,7.95
2023-05-15T13:01:08.539Z,10.70
2023-05-15T13:03:36.205Z,5.90
2023-05-15T13:06:03.985Z,8.02
2023-05-15T13:08:31.774Z,7.05
2023-05-15T13:11:02.157Z,14.13
2023-05-15T13:13:47.117Z,8.77
2023-05-15T13:16:21.768Z,9.02
2023-05-15T13:18:50.345Z,6.15
2023-05-15T13:21:18.130Z,6.90
2023-05-15T13:23:45.370Z,6.75
2023-05-15T13:26:12.242Z,10.32
2023-05-15T13:28:39.513Z,6.80
2023-05-15T13:31:07.462Z,6.38
2023-05-15T13:33:35.700Z,5.78
2023-05-15T13:36:02.842Z,5.30
2023-05-15T13:38:29.811Z,9.68
2023-05-15T13:40:56.711Z,6.00
2023-05-15T13:43:26.904Z,7.85
2023-05-15T13:45:54.433Z,5.65
2023-05-15T13:48:21.395Z,7.07
2023-05-15T13:50:48.255Z,5.93
2023-05-15T13:53:17.164Z,8.35
2023-05-15T13:55:45.575Z,6.97
2023-05-15T13:58:13.371Z,8.60
2023-05-15T14:00:45.393Z,8.00
2023-05-15T14:05:42.488Z,10.05
2023-05-15T14:08:09.460Z,8.25
2023-05-15T14:10:37.619Z,7.93
2023-05-15T14:13:08.151Z,7.68
2023-05-15T14:15:35.651Z,11.60
2023-05-15T14:18:04.049Z,5.13
2023-05-15T14:20:31.299Z,7.90
2023-05-15T14:22:58.022Z,11.55
2023-05-15T14:25:25.868Z,5.18
2023-05-15T14:27:52.700Z,7.40
2023-05-15T14:30:19.760Z,8.68
2023-05-15T14:32:46.923Z,7.28
2023-05-15T14:35:13.724Z,5.75
2023-05-15T14:37:40.833Z,7.53
2023-05-15T14:40:09.099Z,5.40
2023-05-15T14:42:36.014Z,4.60
2023-05-15T14:45:03.134Z,6.68
2023-05-15T14:47:30.628Z,5.55
2023-05-15T14:49:57.483Z,7.03
2023-05-15T14:52:24.331Z,4.90
2023-05-15T14:55:08.075Z,4.22
2023-05-15T14:57:36.821Z,5.35
2023-05-15T15:00:06.098Z,3.83
2023-05-15T15:02:33.095Z,3.78
2023-05-15T15:05:00.387Z,7.15
2023-05-15T15:07:29.474Z,4.28
2023-05-15T15:09:56.237Z,6.57
2023-05-15T15:12:24.224Z,3.42
2023-05-15T15:14:51.081Z,5.05
2023-05-15T15:17:18.683Z,3.97
2023-05-15T15:19:46.426Z,3.55
2023-05-15T15:22:13.302Z,2.30
2023-05-15T15:24:40.563Z,4.00
2023-05-15T15:27:07.807Z,4.63
2023-05-15T15:29:46.888Z,3.47
2023-05-15T15:32:14.244Z,4.70
2023-05-15T15:34:41.517Z,2.95
2023-05-15T15:37:09.088Z,8.88
2023-05-15T15:39:51.336Z,4.50
2023-05-15T15:44:49.752Z,5.63
2023-05-15T15:47:23.030Z,7.75
2023-05-15T15:49:53.519Z,13.90
2023-05-15T15:52:22.172Z,5.18
2023-05-15T15:54:49.266Z,4.68
2023-05-15T15:57:22.958Z,2.75
2023-05-15T16:02:52.839Z,5.15
2023-05-15T16:05:20.099Z,3.60
2023-05-15T16:07:52.036Z,3.53
2023-05-15T16:10:21.874Z,8.68
2023-05-15T16:12:48.933Z,4.90
2023-05-15T16:15:23.366Z,6.18
2023-05-15T16:17:53.489Z,3.95
2023-05-15T16:20:21.182Z,6.60
2023-05-15T16:27:07.537Z,4.95
2023-05-15T16:29:34.438Z,5.75
2023-05-15T16:32:01.597Z,5.90
2023-05-15T16:34:28.426Z,6.35
2023-05-15T16:36:55.601Z,6.00
2023-05-15T16:39:22.326Z,6.85
2023-05-15T16:41:52.143Z,8.73
2023-05-15T16:44:19.439Z,10.18
2023-05-15T16:46:46.436Z,8.82
2023-05-15T16:49:13.507Z,8.15
2023-05-15T16:51:41.201Z,9.43
2023-05-15T16:54:08.006Z,7.80
2023-05-15T16:56:35.184Z,8.85
2023-05-15T16:59:02.154Z,9.13
2023-05-15T17:01:31.306Z,8.32
2023-05-15T17:03:59.926Z,9.88
2023-05-15T17:06:30.116Z,8.75
2023-05-15T17:08:57.350Z,8.48
2023-05-15T17:11:24.369Z,10.70
2023-05-15T17:13:52.766Z,6.60
2023-05-15T17:16:19.877Z,8.93
2023-05-15T17:18:47.059Z,15.73
2023-05-15T17:21:18.845Z,7.70
2023-05-15T17:23:47.654Z,11.45
2023-05-15T17:26:21.530Z,8.10
2023-05-15T17:28:50.993Z,9.18
2023-05-15T17:31:18.397Z,11.45
2023-05-15T17:33:47.524Z,10.27
2023-05-15T17:36:14.953Z,8.77
2023-05-15T17:38:41.935Z,8.63
2023-05-15T17:41:08.759Z,10.45
2023-05-15T17:43:36.201Z,9.95
2023-05-15T17:46:03.840Z,31.40
2023-05-15T17:48:31.346Z,15.65
2023-05-15T17:50:58.546Z,10.30
2023-05-15T17:53:28.399Z,12.13
2023-05-15T17:55:56.294Z,9.48
2023-05-15T17:58:23.197Z,12.15
2023-05-15T18:00:52.152Z,12.60
2023-05-15T18:03:18.897Z,11.13
2023-05-15T18:05:47.106Z,14.00
2023-05-15T18:08:14.478Z,9.98
2023-05-15T18:10:41.119Z,9.63
2023-05-15T18:13:09.959Z,13.18
2023-05-15T18:15:36.596Z,8.57
2023-05-15T18:18:04.122Z,10.05
2023-05-15T18:20:30.855Z,12.35
2023-05-15T18:22:57.696Z,14.85
2023-05-15T18:25:24.924Z,13.70
2023-05-15T18:27:55.931Z,12.70
2023-05-15T18:30:29.931Z,10.00
2023-05-15T18:33:04.793Z,11.30
2023-05-15T18:35:45.295Z,11.18
2023-05-15T18:38:19.931Z,11.30
2023-05-15T18:40:57.463Z,11.20
2023-05-15T18:43:37.352Z,10.93
2023-05-15T18:46:08.084Z,10.18
2023-05-15T18:48:46.343Z,12.63
2023-05-15T18:51:13.249Z,9.65
2023-05-15T18:53:40.180Z,12.23
2023-05-15T18:56:07.003Z,9.93
2023-05-15T18:58:34.474Z,16.20
2023-05-15T19:01:01.220Z,10.13
2023-05-15T19:03:28.095Z,11.50
2023-05-15T19:05:54.834Z,11.25
2023-05-15T19:08:22.146Z,9.20
2023-05-15T19:10:49.312Z,9.40
2023-05-15T19:13:16.496Z,12.07
2023-05-15T19:15:53.524Z,10.13
2023-05-15T19:18:20.605Z,11.75
2023-05-15T19:20:50.588Z,12.30
2023-05-15T19:23:17.434Z,10.32
2023-05-15T19:25:45.202Z,14.32
2023-05-15T19:28:13.050Z,18.58
2023-05-15T19:30:39.959Z,16.73
2023-05-15T19:33:06.803Z,13.23
2023-05-15T19:35:37.651Z,11.75
2023-05-15T19:38:04.839Z,15.07
2023-05-15T19:40:31.923Z,12.63
2023-05-15T19:42:58.997Z,10.50
2023-05-15T19:45:25.748Z,10.48
2023-05-15T19:47:52.756Z,11.07
2023-05-15T19:50:19.911Z,13.07
2023-05-15T19:52:46.967Z,17.45
2023-05-15T19:55:13.960Z,11.02
2023-05-15T19:57:40.742Z,14.10
2023-05-15T20:00:08.506Z,14.70
2023-05-15T20:02:35.807Z,13.77
2023-05-15T20:05:02.548Z,12.95
2023-05-15T20:07:29.493Z,12.45
2023-05-15T20:09:56.261Z,9.88
2023-05-15T20:12:23.226Z,11.85
2023-05-15T20:14:50.789Z,14.23
2023-05-15T20:17:18.480Z,12.45
2023-05-15T20:19:46.809Z,14.02
2023-05-15T20:22:13.847Z,12.10
2023-05-15T20:24:41.255Z,15.90
2023-05-15T20:27:08.476Z,16.58
2023-05-15T20:29:36.197Z,12.55
2023-05-15T20:32:04.228Z,11.75
2023-05-15T20:34:32.837Z,15.25
2023-05-15T20:36:59.497Z,13.57
2023-05-15T20:39:26.814Z,16.10
2023-05-15T20:41:53.642Z,12.88
2023-05-15T20:44:20.764Z,15.43
2023-05-15T20:46:47.400Z,14.38
2023-05-15T20:49:14.400Z,17.67
2023-05-15T20:51:43.727Z,14.82
2023-05-15T20:54:10.369Z,14.75
2023-05-15T20:56:37.316Z,14.10
2023-05-15T20:59:04.065Z,13.38
2023-05-15T21:01:30.922Z,12.52
2023-05-15T21:03:57.695Z,12.00
2023-05-15T21:06:24.815Z,14.50
2023-05-15T21:08:51.706Z,13.05
2023-05-15T21:11:18.803Z,13.90
2023-05-15T21:13:45.402Z,13.38
2023-05-15T21:16:12.164Z,12.13
2023-05-15T21:18:39.309Z,11.68
2023-05-15T21:21:09.321Z,12.18
2023-05-15T21:23:36.726Z,12.45
2023-05-15T21:26:04.050Z,15.70
2023-05-15T21:28:31.038Z,13.95
2023-05-15T21:30:57.847Z,13.02
2023-05-15T21:33:24.509Z,13.23
2023-05-15T21:35:51.759Z,11.60
2023-05-15T21:38:18.729Z,13.55
2023-05-15T21:40:45.487Z,13.45
2023-05-15T21:43:12.298Z,12.05
2023-05-15T21:45:39.724Z,12.32
2023-05-15T21:48:06.874Z,11.30
2023-05-15T21:50:33.765Z,13.40
2023-05-15T21:53:00.800Z,11.48
2023-05-15T21:55:27.595Z,15.30
2023-05-15T21:57:54.339Z,11.00
2023-05-15T22:00:21.001Z,12.80
2023-05-15T22:02:47.984Z,12.82
2023-05-15T22:05:15.347Z,12.50
2023-05-15T22:07:42.363Z,12.20
2023-05-15T22:10:13.813Z,14.10
2023-05-15T22:12:40.577Z,10.80
2023-05-15T22:15:07.894Z,14.73
2023-05-15T22:17:37.041Z,13.68
2023-05-15T22:20:08.142Z,10.52
2023-05-15T22:22:35.892Z,12.30
2023-05-15T22:25:02.726Z,10.38
2023-05-15T22:27:29.336Z,14.27
2023-05-15T22:29:56.138Z,12.95
2023-05-15T22:32:23.017Z,14.25
2023-05-15T22:34:49.990Z,13.40
2023-05-15T22:37:16.662Z,11.60
2023-05-15T22:39:43.943Z,12.90
2023-05-15T22:42:10.685Z,11.93
2023-05-15T22:44:37.459Z,12.85
2023-05-15T22:47:04.291Z,17.05
2023-05-15T22:49:31.103Z,11.57
2023-05-15T22:51:58.262Z,8.57
2023-05-15T22:54:25.171Z,12.05
2023-05-15T22:56:52.603Z,11.77
2023-05-15T22:59:20.217Z,11.30
2023-05-15T23:01:47.675Z,9.38
2023-05-15T23:04:15.113Z,8.70
2023-05-15T23:06:41.938Z,14.15
2023-05-15T23:09:09.108Z,9.35
2023-05-15T23:11:36.085Z,9.00
2023-05-15T23:14:03.731Z,10.93
2023-05-15T23:16:30.990Z,9.65
2023-05-15T23:18:57.980Z,9.82
2023-05-15T23:21:24.866Z,13.32
2023-05-15T23:23:51.750Z,10.85
2023-05-15T23:26:18.455Z,8.50
2023-05-15T23:28:45.344Z,11.50
2023-05-15T23:31:15.204Z,11.98
2023-05-15T23:33:41.967Z,10.65
2023-05-15T23:36:08.949Z,11.68
2023-05-15T23:38:35.857Z,9.48
2023-05-15T23:41:02.616Z,11.48
2023-05-15T23:43:29.814Z,11.75
2023-05-15T23:45:56.457Z,12.05
2023-05-15T23:48:23.120Z,10.23
2023-05-15T23:50:50.225Z,9.48
2023-05-15T23:53:16.982Z,10.85
2023-05-15T23:55:43.596Z,9.30
2023-05-15T23:58:10.227Z,10.13
